createdAt,value
2022-11-05T00:00:37.920Z,45.45
2022-11-05T00:03:23.783Z,29.05
2022-11-05T00:06:12.563Z,34.05
2022-11-05T00:08:59.541Z,38.53
2022-11-05T00:11:46.666Z,34.05
2022-11-05T00:14:32.736Z,36.30
2022-11-05T00:16:59.515Z,32.92
2022-11-05T00:19:26.257Z,34.85
2022-11-05T00:22:11.726Z,35.92
2022-11-05T00:24:56.962Z,39.08
2022-11-05T00:27:23.829Z,34.70
2022-11-05T00:29:50.659Z,30.05
2022-11-05T00:32:17.464Z,35.60
2022-11-05T00:34:44.367Z,36.95
2022-11-05T00:37:11.135Z,43.58
2022-11-05T00:39:37.979Z,32.33
2022-11-05T00:42:23.452Z,35.92
2022-11-05T00:45:02.397Z,36.78
2022-11-05T00:47:51.859Z,34.83
2022-11-05T00:50:20.735Z,43.08
2022-11-05T00:53:06.582Z,41.00
2022-11-05T00:55:41.995Z,40.05
2022-11-05T00:58:17.688Z,38.85
2022-11-05T01:00:50.272Z,40.08
2022-11-05T01:03:19.951Z,41.08
2022-11-05T01:05:49.370Z,37.85
2022-11-05T01:08:18.231Z,37.33
2022-11-05T01:10:51.298Z,33.05
2022-11-05T01:13:21.084Z,38.83
2022-11-05T01:15:50.907Z,37.40
2022-11-05T01:18:19.413Z,38.38
2022-11-05T01:20:46.576Z,33.47
2022-11-05T01:23:14.199Z,33.38
2022-11-05T01:25:42.442Z,38.67
2022-11-05T01:28:09.974Z,41.70
2022-11-05T01:30:37.707Z,35.58
2022-11-05T01:33:04.670Z,33.85
2022-11-05T01:35:31.651Z,35.75
2022-11-05T01:38:01.422Z,36.00
2022-11-05T01:40:28.328Z,43.55
2022-11-05T01:42:55.177Z,35.88
2022-11-05T01:45:25.049Z,41.47
2022-11-05T01:47:51.869Z,42.50
2022-11-05T01:50:30.692Z,41.72
2022-11-05T01:53:12.933Z,43.72
2022-11-05T01:55:55.955Z,42.72
2022-11-05T01:58:26.377Z,40.70
2022-11-05T02:00:54.263Z,39.80
2022-11-05T02:03:21.415Z,47.42
2022-11-05T02:05:49.991Z,47.05
2022-11-05T02:08:27.340Z,47.97
2022-11-05T02:10:54.553Z,46.80
2022-11-05T02:13:21.435Z,49.50
2022-11-05T02:16:13.144Z,42.10
2022-11-05T02:18:58.592Z,51.00
2022-11-05T02:21:34.697Z,43.70
2022-11-05T02:24:35.556Z,46.85
2022-11-05T02:27:37.997Z,54.33
2022-11-05T02:30:28.238Z,41.42
2022-11-05T02:33:11.234Z,44.08
2022-11-05T02:35:47.347Z,53.50
2022-11-05T02:38:35.835Z,48.85
2022-11-05T02:41:14.409Z,45.85
2022-11-05T02:44:13.266Z,49.20
2022-11-05T02:46:57.998Z,43.53
2022-11-05T02:50:20.191Z,47.65
2022-11-05T02:52:57.654Z,57.63
2022-11-05T02:55:51.490Z,49.22
2022-11-05T02:58:18.317Z,59.38
2022-11-05T03:00:50.041Z,49.80
2022-11-05T03:03:40.287Z,52.95
2022-11-05T03:25:58.214Z,69.90
2022-11-05T03:28:30.248Z,72.35
2022-11-05T03:30:59.341Z,58.38
2022-11-05T03:33:30.087Z,67.68
2022-11-05T03:36:00.963Z,73.80
2022-11-05T03:38:34.746Z,73.22
2022-11-05T03:41:06.900Z,69.07
2022-11-05T03:43:38.310Z,74.70
2022-11-05T03:46:12.466Z,75.40
2022-11-05T03:51:12.705Z,74.78
2022-11-05T03:53:55.774Z,85.15
2022-11-05T03:56:37.885Z,78.07
2022-11-05T03:59:07.657Z,86.15
2022-11-05T04:01:36.993Z,75.82
2022-11-05T04:04:06.425Z,86.78
2022-11-05T04:06:51.755Z,73.80
2022-11-05T04:09:37.092Z,74.85
2022-11-05T04:12:22.774Z,75.90
2022-11-05T04:14:49.610Z,81.82
2022-11-05T04:17:16.501Z,77.63
2022-11-05T04:20:03.581Z,82.53
2022-11-05T04:22:51.420Z,88.88
2022-11-05T04:25:20.274Z,82.13
2022-11-05T04:27:47.745Z,89.93
2022-11-05T04:30:19.754Z,89.43
2022-11-05T04:33:07.010Z,90.30
2022-11-05T04:35:39.844Z,95.10
2022-11-05T04:38:09.448Z,79.03
2022-11-05T04:40:37.061Z,89.57
2022-11-05T04:43:04.440Z,89.50
2022-11-05T04:45:34.549Z,83.15
2022-11-05T04:48:02.562Z,82.75
2022-11-05T04:50:29.817Z,80.78
2022-11-05T04:52:56.734Z,75.25
2022-11-05T04:55:23.832Z,91.63
2022-11-05T04:57:52.038Z,97.53
2022-11-05T05:00:20.850Z,86.90
2022-11-05T05:02:49.024Z,87.20
2022-11-05T05:05:16.396Z,85.78
2022-11-05T05:07:43.374Z,82.75
2022-11-05T05:10:11.386Z,77.43
2022-11-05T05:12:38.265Z,78.05
2022-11-05T05:15:05.492Z,80.72
2022-11-05T05:17:32.339Z,72.70
2022-11-05T05:20:17.691Z,69.88
2022-11-05T05:22:44.522Z,60.15
2022-11-05T05:25:11.342Z,65.57
2022-11-05T05:27:38.152Z,58.13
2022-11-05T05:30:05.387Z,53.30
2022-11-05T05:32:32.220Z,59.17
2022-11-05T05:34:59.053Z,51.92
2022-11-05T05:37:25.997Z,54.15
2022-11-05T05:39:53.700Z,50.63
2022-11-05T05:42:22.928Z,56.72
2022-11-05T05:44:49.816Z,50.30
2022-11-05T05:47:16.640Z,59.33
2022-11-05T05:49:43.438Z,50.97
2022-11-05T05:52:10.324Z,46.58
2022-11-05T05:54:42.255Z,57.47
2022-11-05T05:57:10.063Z,42.70
2022-11-05T05:59:36.985Z,48.45
2022-11-05T06:02:03.908Z,49.00
2022-11-05T06:04:30.871Z,44.67
2022-11-05T06:06:57.681Z,44.85
2022-11-05T06:09:24.976Z,50.33
2022-11-05T06:11:51.709Z,44.83
2022-11-05T06:14:18.632Z,53.10
2022-11-05T06:16:48.087Z,47.85
2022-11-05T06:19:14.979Z,43.33
2022-11-05T06:21:41.882Z,41.05
2022-11-05T06:24:09.147Z,38.78
2022-11-05T06:26:36.007Z,41.55
2022-11-05T06:29:02.954Z,36.95
2022-11-05T06:31:30.843Z,40.33
2022-11-05T06:33:57.698Z,38.47
2022-11-05T06:36:24.511Z,42.05
2022-11-05T06:38:51.292Z,36.67
2022-11-05T06:41:18.141Z,35.50
2022-11-05T06:43:45.046Z,47.85
2022-11-05T06:46:12.136Z,39.53
2022-11-05T06:48:39.488Z,36.67
2022-11-05T06:51:08.276Z,43.83
2022-11-05T06:53:36.029Z,38.97
2022-11-05T06:56:07.674Z,32.00
2022-11-05T06:58:34.962Z,39.10
2022-11-05T07:01:06.010Z,33.47
2022-11-05T07:03:32.912Z,34.03
2022-11-05T07:06:04.410Z,32.28
2022-11-05T07:08:32.685Z,31.75
2022-11-05T07:11:00.231Z,31.17
2022-11-05T07:13:27.530Z,25.90
2022-11-05T07:15:54.631Z,35.30
2022-11-05T07:18:22.043Z,37.38
2022-11-05T07:20:49.492Z,26.48
2022-11-05T07:23:17.189Z,29.80
2022-11-05T07:25:44.305Z,32.03
2022-11-05T07:28:11.834Z,32.50
2022-11-05T07:30:38.731Z,30.80
2022-11-05T07:33:05.587Z,29.75
2022-11-05T07:35:32.467Z,28.52
2022-11-05T07:37:59.326Z,30.60
2022-11-05T07:40:28.378Z,29.02
2022-11-05T07:42:57.843Z,28.27
2022-11-05T07:45:26.383Z,30.40
2022-11-05T07:48:01.368Z,31.02
2022-11-05T07:50:36.612Z,31.63
2022-11-05T07:53:14.826Z,30.38
2022-11-05T07:55:42.241Z,30.17
2022-11-05T07:58:09.910Z,28.05
2022-11-05T08:00:36.878Z,28.05
2022-11-05T08:03:16.323Z,27.48
2022-11-05T08:05:46.272Z,28.42
2022-11-05T08:08:16.126Z,33.33
2022-11-05T08:10:43.133Z,26.55
2022-11-05T08:13:12.072Z,29.23
2022-11-05T08:15:39.703Z,25.48
2022-11-05T08:18:10.812Z,32.03
2022-11-05T08:20:38.646Z,26.00
2022-11-05T08:23:05.955Z,29.48
2022-11-05T08:25:33.406Z,27.65
2022-11-05T08:28:02.558Z,29.83
2022-11-05T08:30:30.952Z,32.75
2022-11-05T08:33:00.194Z,29.83
2022-11-05T08:35:27.944Z,24.67
2022-11-05T08:37:59.403Z,31.83
2022-11-05T08:40:27.061Z,31.45
2022-11-05T08:42:57.692Z,25.85
2022-11-05T08:45:28.264Z,33.20
2022-11-05T08:48:07.073Z,32.10
2022-11-05T08:50:34.907Z,29.20
2022-11-05T08:53:01.870Z,27.40
2022-11-05T08:55:28.901Z,27.08
2022-11-05T08:58:01.749Z,29.10
2022-11-05T09:00:31.001Z,27.40
2022-11-05T09:03:02.908Z,25.60
2022-11-05T09:05:30.969Z,30.83
2022-11-05T09:08:01.378Z,29.95
2022-11-05T09:10:28.738Z,30.42
2022-11-05T09:12:55.722Z,35.70
2022-11-05T09:15:23.499Z,29.38
2022-11-05T09:17:50.876Z,27.83
2022-11-05T09:20:17.869Z,27.95
2022-11-05T09:22:46.333Z,32.28
2022-11-05T09:25:15.330Z,29.50
2022-11-05T09:27:42.942Z,31.75
2022-11-05T09:30:10.754Z,28.00
2022-11-05T09:32:38.064Z,28.30
2022-11-05T09:35:05.481Z,30.92
2022-11-05T09:37:32.665Z,28.70
2022-11-05T09:39:59.553Z,29.90
2022-11-05T09:42:33.129Z,30.42
2022-11-05T09:47:34.785Z,27.02
2022-11-05T09:50:06.851Z,25.85
2022-11-05T09:52:34.639Z,27.45
2022-11-05T09:55:06.578Z,23.23
2022-11-05T09:57:44.270Z,30.20
2022-11-05T10:00:18.409Z,24.80
2022-11-05T10:02:56.502Z,26.65
2022-11-05T10:05:27.681Z,23.65
2022-11-05T10:07:59.506Z,28.05
2022-11-05T10:10:26.379Z,21.70
2022-11-05T10:12:57.429Z,25.10
2022-11-05T10:15:34.687Z,23.98
2022-11-05T10:18:15.393Z,23.15
2022-11-05T10:20:43.179Z,26.42
2022-11-05T10:23:12.870Z,27.02
2022-11-05T10:25:44.451Z,22.33
2022-11-05T10:28:19.867Z,26.27
2022-11-05T10:30:49.758Z,24.92
2022-11-05T10:33:24.897Z,25.23
2022-11-05T10:35:55.801Z,22.38
2022-11-05T10:38:22.641Z,24.58
2022-11-05T10:41:02.309Z,24.58
2022-11-05T10:43:54.127Z,27.80
2022-11-05T10:46:23.872Z,23.10
2022-11-05T10:49:32.685Z,22.58
2022-11-05T10:52:06.065Z,24.65
2022-11-05T10:54:35.367Z,24.90
2022-11-05T10:57:27.725Z,24.20
2022-11-05T11:00:19.468Z,27.70
2022-11-05T11:02:50.091Z,26.08
2022-11-05T11:05:36.267Z,26.88
2022-11-05T11:08:11.423Z,22.25
2022-11-05T11:10:57.558Z,22.55
2022-11-05T11:13:47.958Z,27.45
2022-11-05T11:16:26.723Z,23.45
2022-11-05T11:18:54.639Z,22.35
2022-11-05T11:21:26.425Z,21.88
2022-11-05T11:24:07.053Z,25.92
2022-11-05T11:26:37.340Z,25.67
2022-11-05T11:29:44.004Z,21.23
2022-11-05T11:32:18.793Z,22.77
2022-11-05T11:34:49.909Z,20.38
2022-11-05T11:37:33.115Z,18.40
2022-11-05T11:40:17.086Z,21.25
2022-11-05T11:42:56.808Z,20.30
2022-11-05T11:45:47.049Z,19.20
2022-11-05T11:48:21.801Z,22.10
2022-11-05T11:50:49.718Z,26.20
2022-11-05T11:53:22.224Z,25.02
2022-11-05T11:55:55.067Z,27.27
2022-11-05T11:58:23.822Z,22.57
2022-11-05T12:01:03.954Z,24.67
2022-11-05T12:03:45.914Z,26.85
2022-11-05T12:06:30.409Z,27.90
2022-11-05T12:09:13.089Z,27.85
2022-11-05T12:11:50.858Z,32.22
2022-11-05T12:14:17.698Z,27.17
2022-11-05T12:16:45.840Z,29.92
2022-11-05T12:19:45.791Z,27.90
2022-11-05T12:22:30.634Z,31.95
2022-11-05T12:25:09.237Z,27.30
2022-11-05T12:27:36.020Z,29.88
2022-11-05T12:30:08.824Z,31.10
2022-11-05T12:32:54.393Z,31.58
2022-11-05T12:35:23.986Z,33.30
2022-11-05T12:38:23.401Z,31.65
2022-11-05T12:41:32.541Z,27.58
2022-11-05T12:44:20.117Z,30.70
2022-11-05T12:47:01.949Z,32.55
2022-11-05T12:49:54.506Z,36.65
2022-11-05T12:52:52.099Z,34.65
2022-11-05T12:55:25.729Z,29.90
2022-11-05T12:57:57.275Z,28.02
2022-11-05T13:00:26.541Z,29.25
2022-11-05T13:03:24.090Z,24.45
2022-11-05T13:06:01.458Z,30.85
2022-11-05T13:08:52.390Z,29.27
2022-11-05T13:11:44.693Z,26.38
2022-11-05T13:14:20.213Z,34.28
2022-11-05T13:16:51.432Z,26.70
2022-11-05T13:19:37.657Z,27.50
2022-11-05T13:22:22.056Z,25.02
2022-11-05T13:27:59.696Z,29.90
2022-11-05T13:30:37.677Z,24.38
2022-11-05T13:33:15.588Z,21.85
2022-11-05T13:36:21.944Z,27.27
2022-11-05T13:39:07.224Z,27.95
2022-11-05T13:41:57.406Z,30.40
2022-11-05T13:44:26.939Z,26.08
2022-11-05T13:46:53.738Z,23.67
2022-11-05T13:49:32.589Z,30.02
2022-11-05T13:52:36.582Z,31.77
2022-11-05T13:55:18.594Z,31.42
2022-11-05T13:57:53.279Z,29.27
2022-11-05T14:00:29.223Z,26.65
2022-11-05T14:03:06.413Z,28.98
2022-11-05T14:05:39.469Z,30.88
2022-11-05T14:08:18.791Z,24.92
2022-11-05T14:10:58.401Z,30.92
2022-11-05T14:13:44.038Z,27.67
2022-11-05T14:16:19.571Z,29.33
2022-11-05T14:19:06.479Z,23.70
2022-11-05T14:21:47.560Z,29.17
2022-11-05T14:24:23.270Z,28.52
2022-11-05T14:27:02.220Z,28.02
2022-11-05T14:29:42.338Z,25.85
2022-11-05T14:32:21.232Z,29.10
2022-11-05T14:34:49.518Z,31.63
2022-11-05T14:37:23.936Z,31.60
2022-11-05T14:39:51.406Z,33.85
2022-11-05T14:42:29.646Z,30.67
2022-11-05T14:45:05.606Z,31.20
2022-11-05T14:47:37.553Z,33.75
2022-11-05T14:50:22.095Z,36.42
2022-11-05T14:52:57.573Z,38.08
2022-11-05T14:55:29.691Z,34.47
2022-11-05T14:57:56.526Z,35.15
2022-11-05T15:00:29.174Z,39.67
2022-11-05T15:03:23.910Z,44.30
2022-11-05T15:08:37.376Z,40.25
2022-11-05T15:27:37.837Z,42.05
2022-11-05T15:30:20.183Z,41.72
2022-11-05T15:32:47.235Z,43.95
2022-11-05T15:35:29.210Z,41.00
2022-11-05T15:38:02.006Z,39.22
2022-11-05T15:40:33.446Z,41.38
2022-11-05T15:43:17.735Z,38.45
2022-11-05T15:46:00.114Z,36.28
2022-11-05T15:48:27.004Z,29.88
2022-11-05T15:50:54.042Z,36.72
2022-11-05T15:53:56.053Z,36.40
2022-11-05T15:56:23.362Z,35.70
2022-11-05T15:58:53.771Z,38.33
2022-11-05T16:01:29.272Z,37.20
2022-11-05T16:04:17.322Z,42.70
2022-11-05T16:06:47.790Z,41.45
2022-11-05T16:09:26.199Z,40.72
2022-11-05T16:12:18.493Z,37.47
2022-11-05T16:15:00.091Z,44.90
2022-11-05T16:17:30.118Z,40.65
2022-11-05T16:19:57.649Z,40.10
2022-11-05T16:22:25.510Z,42.58
2022-11-05T16:24:52.420Z,39.15
2022-11-05T16:27:22.551Z,44.60
2022-11-05T16:29:57.447Z,38.15
2022-11-05T16:32:29.684Z,47.58
2022-11-05T16:35:00.221Z,44.70
2022-11-05T16:37:29.488Z,39.42
2022-11-05T16:39:56.471Z,45.95
2022-11-05T16:42:23.252Z,43.67
2022-11-05T16:44:55.314Z,40.40
2022-11-05T16:47:22.792Z,48.40
2022-11-05T16:49:50.617Z,45.53
2022-11-05T16:52:17.860Z,44.90
2022-11-05T16:54:45.447Z,53.15
2022-11-05T16:57:21.436Z,42.05
2022-11-05T16:59:48.309Z,41.92
2022-11-05T17:02:15.411Z,39.20
2022-11-05T17:04:42.284Z,44.50
2022-11-05T17:07:09.119Z,46.00
2022-11-05T17:09:35.942Z,45.75
2022-11-05T17:12:03.032Z,46.03
2022-11-05T17:14:29.870Z,49.70
2022-11-05T17:16:56.687Z,43.28
2022-11-05T17:19:23.500Z,42.13
2022-11-05T17:21:50.544Z,50.03
2022-11-05T17:24:17.442Z,49.00
2022-11-05T17:26:44.326Z,43.55
2022-11-05T17:29:11.346Z,53.80
2022-11-05T17:31:40.653Z,44.78
2022-11-05T17:34:08.652Z,44.28
2022-11-05T17:36:35.522Z,44.50
2022-11-05T17:39:02.450Z,38.58
2022-11-05T17:41:29.338Z,41.67
2022-11-05T17:43:57.656Z,52.10
2022-11-05T17:46:25.010Z,50.00
2022-11-05T17:48:51.794Z,51.25
2022-11-05T17:51:19.900Z,52.10
2022-11-05T17:53:49.156Z,44.80
2022-11-05T17:56:32.210Z,50.72
2022-11-05T17:59:01.466Z,48.78
2022-11-05T18:01:31.254Z,46.42
2022-11-05T18:03:59.536Z,47.30
2022-11-05T18:06:28.198Z,46.65
2022-11-05T18:08:55.069Z,48.35
2022-11-05T18:11:21.868Z,55.38
2022-11-05T18:13:48.712Z,49.05
2022-11-05T18:16:15.652Z,54.08
2022-11-05T18:18:42.547Z,50.05
2022-11-05T18:21:09.322Z,52.83
2022-11-05T18:23:36.196Z,52.22
2022-11-05T18:26:11.482Z,51.05
2022-11-05T18:28:38.749Z,52.67
2022-11-05T18:31:15.290Z,53.08
2022-11-05T18:33:44.895Z,60.67
2022-11-05T18:36:19.442Z,61.50
2022-11-05T18:38:46.842Z,56.38
2022-11-05T18:41:14.222Z,58.20
2022-11-05T18:43:41.606Z,54.03
2022-11-05T18:46:08.898Z,60.25
2022-11-05T18:48:36.165Z,64.43
2022-11-05T18:51:14.892Z,62.90
2022-11-05T18:53:42.329Z,63.25
2022-11-05T18:56:18.519Z,56.28
2022-11-05T18:58:45.830Z,62.53
2022-11-05T19:01:15.124Z,61.97
2022-11-05T19:03:42.355Z,60.67
2022-11-05T19:06:09.666Z,60.47
2022-11-05T19:08:37.142Z,69.32
2022-11-05T19:11:24.826Z,67.88
2022-11-05T19:13:52.523Z,59.25
2022-11-05T19:16:25.811Z,70.22
2022-11-05T19:18:53.107Z,71.20
2022-11-05T19:21:22.793Z,74.53
2022-11-05T19:23:50.117Z,68.30
2022-11-05T19:26:23.025Z,68.78
2022-11-05T19:28:54.206Z,71.28
2022-11-05T19:31:23.715Z,66.35
2022-11-05T19:33:52.023Z,71.20
2022-11-05T19:36:20.783Z,68.32
2022-11-05T19:38:49.696Z,66.47
2022-11-05T19:41:19.743Z,74.07
2022-11-05T19:43:46.860Z,86.15
2022-11-05T19:46:19.336Z,71.53
2022-11-05T19:48:46.896Z,80.75
2022-11-05T19:51:17.090Z,69.40
2022-11-05T19:53:44.270Z,65.70
2022-11-05T19:56:14.177Z,67.70
2022-11-05T19:58:41.795Z,69.07
2022-11-05T20:01:09.816Z,66.38
2022-11-05T20:03:37.862Z,64.55
2022-11-05T20:06:10.143Z,77.38
2022-11-05T20:08:53.067Z,73.68
2022-11-05T20:11:24.012Z,64.43
2022-11-05T20:13:51.005Z,66.78
2022-11-05T20:16:29.658Z,78.40
2022-11-05T20:18:57.452Z,71.45
2022-11-05T20:21:24.254Z,67.65
2022-11-05T20:23:51.134Z,67.43
2022-11-05T20:26:18.125Z,64.35
2022-11-05T20:28:45.721Z,65.13
2022-11-05T20:31:15.241Z,66.32
2022-11-05T20:33:43.152Z,72.35
2022-11-05T20:36:16.441Z,65.10
2022-11-05T20:38:44.802Z,70.17
2022-11-05T20:41:12.842Z,65.25
2022-11-05T20:43:44.114Z,62.28
2022-11-05T20:46:14.730Z,69.43
2022-11-05T20:48:42.304Z,59.88
2022-11-05T20:51:14.685Z,64.35
2022-11-05T20:53:42.095Z,64.40
2022-11-05T20:56:09.569Z,66.20
2022-11-05T20:58:37.834Z,60.63
2022-11-05T21:01:05.832Z,68.32
2022-11-05T21:03:32.710Z,65.47
2022-11-05T21:06:04.580Z,65.85
2022-11-05T21:08:32.587Z,61.08
2022-11-05T21:10:59.814Z,63.78
2022-11-05T21:13:27.628Z,73.57
2022-11-05T21:15:57.974Z,63.55
2022-11-05T21:18:30.689Z,67.68
2022-11-05T21:20:58.052Z,60.55
2022-11-05T21:23:24.929Z,56.38
2022-11-05T21:25:51.756Z,62.15
2022-11-05T21:28:18.639Z,64.78
2022-11-05T21:30:46.611Z,61.50
2022-11-05T21:33:14.778Z,56.17
2022-11-05T21:35:47.017Z,60.03
2022-11-05T21:38:16.203Z,53.75
2022-11-05T21:40:43.390Z,58.30
2022-11-05T21:43:10.967Z,56.35
2022-11-05T21:45:39.891Z,62.83
2022-11-05T21:48:07.604Z,62.08
2022-11-05T21:50:53.864Z,59.08
2022-11-05T21:53:39.139Z,62.95
2022-11-05T21:56:26.560Z,64.40
2022-11-05T21:59:11.972Z,59.45
2022-11-05T22:01:38.981Z,63.63
2022-11-05T22:04:05.882Z,66.30
2022-11-05T22:06:33.432Z,317.30
2022-11-05T22:09:00.379Z,204.95
2022-11-05T22:11:27.297Z,73.28
2022-11-05T22:13:54.169Z,66.82
2022-11-05T22:16:21.006Z,69.65
2022-11-05T22:18:47.962Z,68.47
2022-11-05T22:21:19.134Z,63.72
2022-11-05T22:23:46.212Z,61.70
2022-11-05T22:26:13.061Z,66.82
2022-11-05T22:28:39.841Z,78.15
2022-11-05T22:31:17.218Z,82.00
2022-11-05T22:33:44.502Z,71.60
2022-11-05T22:36:11.753Z,69.68
2022-11-05T22:38:39.495Z,79.20
2022-11-05T22:41:08.195Z,68.43
2022-11-05T22:43:35.243Z,73.13
2022-11-05T22:46:07.024Z,63.80
2022-11-05T22:48:36.218Z,63.70
2022-11-05T22:51:05.476Z,63.97
2022-11-05T22:53:34.153Z,58.53
2022-11-05T22:56:12.357Z,62.97
2022-11-05T22:58:39.335Z,61.17
2022-11-05T23:01:08.273Z,62.60
2022-11-05T23:03:35.603Z,60.35
2022-11-05T23:06:04.734Z,68.10
2022-11-05T23:08:50.679Z,62.40
2022-11-05T23:11:41.274Z,67.20
2022-11-05T23:14:10.724Z,60.30
2022-11-05T23:16:56.711Z,61.45
2022-11-05T23:19:42.373Z,64.43
2022-11-05T23:22:33.399Z,61.40
2022-11-05T23:25:00.220Z,63.13
2022-11-05T23:27:32.696Z,61.03
2022-11-05T23:30:01.195Z,71.88
2022-11-05T23:32:30.622Z,60.03
2022-11-05T23:34:58.958Z,54.45
2022-11-05T23:37:48.460Z,57.92
2022-11-05T23:40:21.455Z,54.88
2022-11-05T23:43:07.445Z,59.00
2022-11-05T23:45:55.137Z,60.38
2022-11-05T23:48:33.060Z,50.80
2022-11-05T23:51:06.582Z,51.08
2022-11-05T23:53:36.118Z,57.28
2022-11-05T23:56:08.825Z,61.15
2022-11-05T23:58:36.998Z,78.57
